Time;durP1;ratioP1;P1;durP2;ratioP2;P2;SDS_P1;SDS_P2;PMS_P1;PMS_P2;Temp;Humidity;BMP_temperature;BMP_pressure;BME280_temperature;BME280_humidity;BME280_pressure;Samples;Min_cycle;Max_cycle;Signal;HPM_P1;HPM_P2
2020/12/20 00:01:22;;;;;;;121.87;56.68;;;;;;;-1.72;74.09;98129.23;1782264;80;27568;-87
2020/12/20 00:03:50;;;;;;;127.12;56.77;;;;;;;-1.77;74.08;98128.72;1782350;80;25906;-87
2020/12/20 00:06:17;;;;;;;132.18;58.75;;;;;;;-1.77;74.13;98130.05;1782278;80;26255;-87
2020/12/20 00:08:47;;;;;;;119.53;53.90;;;;;;;-1.78;74.10;98134.97;1782485;80;27324;-87
2020/12/20 00:11:14;;;;;;;126.87;55.65;;;;;;;-1.79;74.11;98133.28;1762447;80;25859;-87
2020/12/20 00:13:42;;;;;;;113.75;51.50;;;;;;;-1.85;74.17;98134.13;1782380;80;28461;-86
2020/12/20 00:16:09;;;;;;;117.77;52.25;;;;;;;-1.84;74.27;98130.53;1782248;80;25856;-86
2020/12/20 00:18:36;;;;;;;115.20;50.12;;;;;;;-1.86;74.23;98130.28;1782460;80;25748;-87
2020/12/20 00:21:08;;;;;;;115.12;50.75;;;;;;;-1.88;74.29;98131.71;1766123;80;33211;-87
2020/12/20 00:23:38;;;;;;;118.53;51.02;;;;;;;-1.99;74.29;98129.04;1755179;81;26379;-86
2020/12/20 00:26:07;;;;;;;112.65;50.95;;;;;;;-2.09;74.36;98126.72;1744211;81;27629;-87
2020/12/20 00:28:34;;;;;;;120.45;53.85;;;;;;;-2.09;74.43;98128.05;1740974;81;25820;-87
2020/12/20 00:31:02;;;;;;;111.77;49.93;;;;;;;-2.09;74.46;98128.53;1744201;81;25776;-86
2020/12/20 00:33:29;;;;;;;110.10;50.35;;;;;;;-2.06;74.49;98135.77;1756413;81;25841;-86
2020/12/20 00:35:56;;;;;;;109.72;50.80;;;;;;;-2.05;74.51;98137.42;1769800;81;25891;-88
2020/12/20 00:38:24;;;;;;;110.15;49.65;;;;;;;-2.01;74.47;98136.24;1769899;81;27864;-86
2020/12/20 00:40:51;;;;;;;110.92;50.28;;;;;;;-1.98;74.46;98142.63;1769814;81;26116;-87
2020/12/20 00:43:18;;;;;;;107.43;50.45;;;;;;;-1.98;74.38;98134.70;1769774;80;25830;-86
2020/12/20 00:45:51;;;;;;;113.20;50.58;;;;;;;-2.02;74.30;98130.58;1769909;81;26813;-87
2020/12/20 00:48:18;;;;;;;117.80;50.80;;;;;;;-2.01;74.29;98134.92;1770256;81;26344;-87
2020/12/20 00:50:45;;;;;;;114.15;53.78;;;;;;;-2.05;74.29;98129.48;1769764;81;28589;-88
2020/12/20 00:53:12;;;;;;;125.18;51.80;;;;;;;-2.12;74.28;98130.91;1769879;81;25413;-87
2020/12/20 00:55:40;;;;;;;109.45;49.38;;;;;;;-2.17;74.32;98129.59;1769796;81;25815;-87
2020/12/20 00:58:07;;;;;;;115.03;51.08;;;;;;;-2.25;74.42;98136.75;1769853;80;25870;-87
2020/12/20 01:00:35;;;;;;;112.90;50.40;;;;;;;-2.23;74.50;98139.66;1769844;81;25987;-88
2020/12/20 01:03:02;;;;;;;121.33;52.55;;;;;;;-2.22;74.50;98139.18;1769788;80;27457;-87
2020/12/20 01:05:29;;;;;;;111.70;50.03;;;;;;;-2.19;74.48;98131.02;1769759;80;26133;-88
2020/12/20 01:07:57;;;;;;;114.28;52.70;;;;;;;-2.21;74.45;98131.61;1769884;80;25722;-87
2020/12/20 01:10:24;;;;;;;111.88;52.58;;;;;;;-2.23;74.43;98130.88;1769787;81;26767;-87
2020/12/20 01:12:51;;;;;;;119.00;54.55;;;;;;;-2.21;74.48;98124.52;1769967;81;25838;-88
2020/12/20 01:15:19;;;;;;;117.50;52.50;;;;;;;-2.19;74.42;98120.44;1769764;81;28344;-88
2020/12/20 01:17:46;;;;;;;107.43;49.75;;;;;;;-2.21;74.36;98120.55;1769770;80;25734;-88
2020/12/20 01:20:14;;;;;;;104.10;45.92;;;;;;;-2.21;74.37;98118.39;1771896;80;26024;-87
2020/12/20 01:22:41;;;;;;;83.58;39.85;;;;;;;-2.22;74.41;98115.38;1750155;80;25760;-86
2020/12/20 01:25:10;;;;;;;83.55;39.38;;;;;;;-2.30;74.38;98124.38;1774999;80;25790;-87
2020/12/20 01:27:37;;;;;;;88.97;41.30;;;;;;;-2.40;74.53;98131.27;1776893;80;27496;-86
2020/12/20 01:30:06;;;;;;;91.02;42.33;;;;;;;-2.49;74.57;98124.02;1776930;80;25802;-88
2020/12/20 01:32:33;;;;;;;92.60;41.90;;;;;;;-2.55;74.68;98124.86;1776804;80;25775;-87
2020/12/20 01:35:00;;;;;;;91.55;43.50;;;;;;;-2.52;74.73;98117.63;1776667;80;25873;-88
2020/12/20 01:37:28;;;;;;;90.83;42.45;;;;;;;-2.48;74.77;98123.91;1767539;80;25850;-89
2020/12/20 01:39:55;;;;;;;108.45;45.43;;;;;;;-2.48;74.74;98122.59;1735265;80;27495;-89
2020/12/20 01:42:22;;;;;;;131.72;48.10;;;;;;;-2.45;74.76;98121.53;1770682;80;25809;-88
2020/12/20 01:44:50;;;;;;;93.67;39.00;;;;;;;-2.41;74.80;98121.64;1777064;80;25348;-87
2020/12/20 01:47:19;;;;;;;97.27;39.25;;;;;;;-2.39;74.74;98119.73;1777013;80;25787;-87
2020/12/20 01:49:47;;;;;;;80.07;36.38;;;;;;;-2.37;74.75;98115.19;1776819;80;25811;-87
2020/12/20 01:52:15;;;;;;;84.42;38.38;;;;;;;-2.39;74.72;98114.45;1751273;80;27503;-87
2020/12/20 01:54:50;;;;;;;80.47;37.78;;;;;;;-2.46;74.70;98112.75;1735140;80;25825;-89
2020/12/20 01:57:17;;;;;;;87.40;38.50;;;;;;;-2.46;74.75;98111.91;1741581;80;25370;-88
2020/12/20 01:59:46;;;;;;;93.00;40.65;;;;;;;-2.45;74.76;98104.34;1774042;80;25888;-87
2020/12/20 02:02:14;;;;;;;119.40;59.95;;;;;;;-2.45;74.76;98096.41;1760848;80;25848;-87
2020/12/20 02:04:44;;;;;;;126.15;50.90;;;;;;;-2.44;74.83;98095.45;1771949;80;26725;-88
2020/12/20 02:07:12;;;;;;;93.03;41.98;;;;;;;-2.44;74.89;98103.39;1776816;80;25782;-86
2020/12/20 02:09:39;;;;;;;96.32;40.23;;;;;;;-2.47;75.00;98093.88;1776813;80;25742;-87
2020/12/20 02:12:08;;;;;;;107.22;46.02;;;;;;;-2.44;75.04;98091.49;1776909;80;26855;-86
2020/12/20 02:14:35;;;;;;;119.37;47.53;;;;;;;-2.42;75.12;98101.48;1754866;80;25776;-87
2020/12/20 02:17:05;;;;;;;109.32;44.42;;;;;;;-2.41;75.18;98104.46;1742672;80;28522;-87
2020/12/20 02:19:33;;;;;;;106.27;43.30;;;;;;;-2.39;75.23;98093.30;1742296;81;26355;-87
2020/12/20 02:22:00;;;;;;;91.75;38.90;;;;;;;-2.33;75.37;98094.18;1767674;80;25836;-88
2020/12/20 02:24:29;;;;;;;176.87;54.67;;;;;;;-2.32;75.39;98091.91;1748406;80;26841;-88
2020/12/20 02:26:56;;;;;;;85.42;33.55;;;;;;;-2.28;75.61;98088.05;1777009;80;25908;-86
2020/12/20 02:29:23;;;;;;;80.85;34.27;;;;;;;-2.26;75.69;98086.14;1755302;80;27496;-89
2020/12/20 02:31:51;;;;;;;78.00;31.85;;;;;;;-2.27;75.56;98095.87;1764891;80;25840;-86
2020/12/20 02:34:18;;;;;;;78.85;33.80;;;;;;;-2.27;75.52;98085.30;1776933;80;25843;-86
2020/12/20 02:36:47;;;;;;;80.95;34.13;;;;;;;-2.25;75.52;98082.54;1776835;80;26582;-86
2020/12/20 02:39:15;;;;;;;69.75;30.23;;;;;;;-2.20;75.61;98087.86;1774285;80;26366;-87
2020/12/20 02:41:42;;;;;;;75.05;32.23;;;;;;;-2.23;75.71;98084.59;1776943;80;27504;-86
2020/12/20 02:44:10;;;;;;;73.95;32.33;;;;;;;-2.17;75.81;98085.44;1776806;80;26013;-87
2020/12/20 02:46:38;;;;;;;70.67;31.10;;;;;;;-2.11;75.81;98086.79;1776942;80;25777;-87
2020/12/20 02:49:05;;;;;;;59.15;27.65;;;;;;;-2.08;75.80;98094.02;1776773;80;25831;-86
2020/12/20 02:51:32;;;;;;;53.20;25.35;;;;;;;-2.12;75.67;98093.88;1776866;80;25815;-87
2020/12/20 02:54:00;;;;;;;55.83;25.10;;;;;;;-2.10;75.94;98093.30;1776823;80;27567;-87
2020/12/20 02:56:27;;;;;;;61.40;26.87;;;;;;;-2.04;76.04;98095.45;1778671;80;26276;-87
2020/12/20 02:58:54;;;;;;;61.40;25.60;;;;;;;-2.00;75.96;98098.25;1778793;80;25647;-86
2020/12/20 03:01:22;;;;;;;55.83;25.02;;;;;;;-2.00;75.95;98101.38;1776867;80;25884;-87
2020/12/20 03:03:49;;;;;;;47.13;22.48;;;;;;;-2.04;75.96;98099.42;1776985;80;25891;-86
2020/12/20 03:06:17;;;;;;;54.85;26.00;;;;;;;-1.99;76.25;98105.22;1771249;80;27496;-86
2020/12/20 03:08:44;;;;;;;52.23;23.80;;;;;;;-1.89;76.40;98108.85;1748989;80;25902;-86
2020/12/20 03:11:11;;;;;;;58.35;25.43;;;;;;;-1.81;76.43;98105.61;1766835;80;25724;-87
2020/12/20 03:13:39;;;;;;;44.30;23.70;;;;;;;-1.80;76.34;98104.66;1776888;80;26684;-86
2020/12/20 03:16:06;;;;;;;45.23;22.50;;;;;;;-1.79;76.33;98104.17;1755043;80;25361;-86
2020/12/20 03:18:33;;;;;;;47.45;24.02;;;;;;;-1.80;76.43;98102.01;1761440;80;27628;-86
2020/12/20 03:21:00;;;;;;;52.33;24.25;;;;;;;-1.74;76.42;98103.35;1742430;80;26193;-87
2020/12/20 03:23:28;;;;;;;49.53;23.02;;;;;;;-1.67;76.54;98103.23;1746398;80;25774;-86
2020/12/20 03:25:55;;;;;;;48.83;25.65;;;;;;;-1.60;76.52;98103.14;1744251;80;27257;-86
2020/12/20 03:28:22;;;;;;;49.53;25.97;;;;;;;-1.64;76.30;98105.65;1766295;80;25719;-86
2020/12/20 03:30:50;;;;;;;45.17;24.45;;;;;;;-1.67;76.13;98103.23;1750798;80;27506;-86
2020/12/20 03:33:17;;;;;;;54.35;25.05;;;;;;;-1.71;76.00;98109.27;1755624;80;25828;-86
2020/12/20 03:35:44;;;;;;;49.15;25.57;;;;;;;-1.74;75.94;98103.35;1747453;80;26259;-86
2020/12/20 03:38:12;;;;;;;48.30;26.07;;;;;;;-1.75;75.87;98099.86;1776880;80;25819;-86
2020/12/20 03:40:39;;;;;;;54.05;25.77;;;;;;;-1.79;75.78;98105.50;1742156;80;25887;-86
2020/12/20 03:43:06;;;;;;;48.92;23.95;;;;;;;-1.84;75.67;98105.39;1765849;80;27492;-86
2020/12/20 03:45:33;;;;;;;50.30;25.75;;;;;;;-1.85;75.60;98102.38;1769003;80;26104;-86
2020/12/20 03:48:01;;;;;;;53.45;25.25;;;;;;;-1.90;75.44;98107.16;1763340;80;25757;-86
2020/12/20 03:50:32;;;;;;;55.10;25.72;;;;;;;-1.96;75.43;98101.03;1769804;80;25886;-86
2020/12/20 03:52:57;;;;;;;50.33;25.80;;;;;;;-1.96;75.49;98107.65;1755712;80;25320;-86
2020/12/20 03:55:25;;;;;;;54.50;25.37;;;;;;;-1.93;75.51;98113.16;1773711;80;27539;-86
2020/12/20 03:57:52;;;;;;;51.18;25.25;;;;;;;-1.93;75.43;98110.03;1758681;80;26132;-86
2020/12/20 04:00:19;;;;;;;48.87;23.95;;;;;;;-1.97;75.39;98103.31;1776844;80;25774;-87
2020/12/20 04:02:48;;;;;;;53.78;26.60;;;;;;;-2.00;75.44;98106.19;1776939;80;26485;-86
2020/12/20 04:05:16;;;;;;;56.63;26.97;;;;;;;-2.01;75.48;98103.17;1776850;80;25827;-88
2020/12/20 04:07:43;;;;;;;56.23;26.45;;;;;;;-2.01;75.43;98103.17;1776810;80;28763;-86
2020/12/20 04:10:11;;;;;;;55.08;25.77;;;;;;;-2.02;75.32;98102.80;1758802;80;25722;-87
2020/12/20 04:12:38;;;;;;;47.15;24.43;;;;;;;-2.06;75.15;98104.02;1746154;80;25743;-86
2020/12/20 04:15:05;;;;;;;65.17;29.40;;;;;;;-2.10;75.12;98105.20;1747632;80;25866;-87
2020/12/20 04:17:33;;;;;;;67.58;29.65;;;;;;;-2.15;75.11;98107.33;1769733;80;25866;-87
2020/12/20 04:20:00;;;;;;;57.95;28.65;;;;;;;-2.18;75.20;98104.94;1765440;80;28445;-86
2020/12/20 04:22:27;;;;;;;95.92;39.23;;;;;;;-2.10;75.30;98104.35;1777333;80;25753;-87
2020/12/20 04:24:54;;;;;;;141.00;49.38;;;;;;;-2.11;75.28;98115.89;1790840;80;25359;-89
2020/12/20 04:27:22;;;;;;;82.65;34.08;;;;;;;-2.11;75.27;98110.59;1790816;80;25860;-89
2020/12/20 04:29:49;;;;;;;73.78;33.55;;;;;;;-2.10;75.31;98109.16;1786857;80;26032;-86
2020/12/20 04:32:18;;;;;;;87.33;36.60;;;;;;;-2.05;75.39;98109.64;1765688;80;27556;-87
2020/12/20 04:34:45;;;;;;;72.17;32.30;;;;;;;-2.05;75.39;98105.67;1763876;80;25849;-87
2020/12/20 04:37:12;;;;;;;67.97;30.57;;;;;;;-2.04;75.43;98102.07;1790627;80;25785;-87
2020/12/20 04:39:40;;;;;;;81.10;34.03;;;;;;;-2.01;75.48;98101.84;1790688;80;25819;-87
2020/12/20 04:42:07;;;;;;;79.77;33.63;;;;;;;-2.00;75.50;98096.08;1778440;80;25836;-87
2020/12/20 04:44:35;;;;;;;78.35;32.83;;;;;;;-1.97;75.55;98101.98;1758945;80;27577;-87
2020/12/20 04:47:04;;;;;;;75.72;33.33;;;;;;;-1.92;75.59;98106.44;1759438;80;25320;-87
2020/12/20 04:49:33;;;;;;;91.78;39.00;;;;;;;-1.89;75.58;98100.07;1767851;80;25937;-88
2020/12/20 04:52:01;;;;;;;87.62;36.15;;;;;;;-1.83;75.63;98108.41;1789974;80;25879;-87
2020/12/20 04:54:30;;;;;;;92.37;36.10;;;;;;;-1.79;75.60;98103.69;1773203;80;25341;-87
2020/12/20 04:56:57;;;;;;;74.45;31.35;;;;;;;-1.81;75.57;98101.16;1787383;80;27503;-88
2020/12/20 04:59:26;;;;;;;73.87;31.12;;;;;;;-1.79;75.74;98094.91;1790696;80;25774;-88
2020/12/20 05:01:54;;;;;;;84.58;33.30;;;;;;;-1.78;75.78;98109.83;1790719;80;25731;-86
2020/12/20 05:04:21;;;;;;;94.32;39.95;;;;;;;-1.75;75.88;98109.61;1762098;80;25836;-87
2020/12/20 05:06:49;;;;;;;132.78;47.27;;;;;;;-1.70;75.96;98104.81;1767559;80;25886;-88
2020/12/20 05:09:16;;;;;;;130.10;44.67;;;;;;;-1.67;76.02;98107.20;1759569;80;28490;-87
2020/12/20 05:11:44;;;;;;;103.72;40.48;;;;;;;-1.64;76.00;98105.17;1780265;80;25862;-88
2020/12/20 05:14:15;;;;;;;95.25;36.65;;;;;;;-1.57;76.05;98113.50;1788164;80;25381;-87
2020/12/20 05:16:42;;;;;;;70.90;30.85;;;;;;;-1.53;76.06;98113.13;1772550;80;25839;-88
2020/12/20 05:19:15;;;;;;;68.17;29.18;;;;;;;-1.48;76.20;98118.92;1787335;80;26238;-87
2020/12/20 05:21:43;;;;;;;73.00;30.82;;;;;;;-1.51;76.28;98121.80;1767511;80;27508;-86
2020/12/20 05:24:28;;;;;;;64.82;28.32;;;;;;;-1.54;76.28;98111.91;1776924;80;25333;-87
2020/12/20 05:26:56;;;;;;;71.15;29.90;;;;;;;-1.54;76.39;98110.59;1776910;80;25899;-88
2020/12/20 05:29:28;;;;;;;68.57;29.48;;;;;;;-1.49;76.42;98115.91;1773601;80;25923;-88
2020/12/20 05:31:55;;;;;;;48.73;22.27;;;;;;;-1.47;76.36;98111.81;1741626;80;25746;-88
2020/12/20 05:34:23;;;;;;;63.50;28.92;;;;;;;-1.43;76.39;98107.95;1766920;80;28435;-88
2020/12/20 05:36:50;;;;;;;68.92;29.27;;;;;;;-1.39;76.37;98112.05;1776827;80;26187;-87
2020/12/20 05:39:20;;;;;;;64.58;28.92;;;;;;;-1.34;76.37;98120.50;1755955;80;26369;-88
2020/12/20 05:41:48;;;;;;;62.15;28.45;;;;;;;-1.29;76.37;98122.28;1746074;80;26352;-87
2020/12/20 05:44:24;;;;;;;59.38;27.58;;;;;;;-1.24;76.35;98116.64;1746159;80;25893;-87
2020/12/20 05:46:52;;;;;;;68.30;28.92;;;;;;;-1.21;76.37;98117.73;1767785;80;27501;-86
2020/12/20 05:49:23;;;;;;;99.05;42.30;;;;;;;-1.23;76.38;98115.20;1764858;80;25833;-86
2020/12/20 05:52:11;;;;;;;97.70;43.00;;;;;;;-1.21;76.36;98119.86;1776946;80;25724;-86
2020/12/20 05:54:41;;;;;;;116.05;47.15;;;;;;;-1.23;76.34;98119.17;1777001;80;25825;-87
2020/12/20 05:57:12;;;;;;;125.65;50.15;;;;;;;-1.24;76.39;98116.16;1744273;82;25722;-87
2020/12/20 05:59:42;;;;;;;128.18;51.70;;;;;;;-1.21;76.46;98118.54;1706639;83;27647;-87
2020/12/20 06:02:10;;;;;;;143.00;55.35;;;;;;;-1.18;76.45;98119.63;1764588;80;25839;-86
2020/12/20 06:04:39;;;;;;;146.37;55.35;;;;;;;-1.16;76.46;98119.52;1760659;80;25517;-86
2020/12/20 06:07:09;;;;;;;130.05;51.88;;;;;;;-1.19;76.48;98117.94;1755143;80;26736;-87
2020/12/20 06:09:59;;;;;;;132.37;54.60;;;;;;;-1.20;76.47;98125.53;1776515;80;25878;-87
2020/12/20 06:12:29;;;;;;;142.22;56.33;;;;;;;-1.18;76.49;98126.25;1756164;80;27511;-86
2020/12/20 06:14:59;;;;;;;148.30;59.95;;;;;;;-1.16;76.49;98122.16;1764570;80;25689;-87
2020/12/20 06:17:30;;;;;;;153.80;61.40;;;;;;;-1.19;76.37;98127.22;1768189;80;25753;-87
2020/12/20 06:20:06;;;;;;;139.32;54.60;;;;;;;-1.17;76.34;98120.00;1776752;80;26681;-88
2020/12/20 06:22:35;;;;;;;154.23;59.35;;;;;;;-1.16;76.29;98116.38;1755128;80;25819;-87
2020/12/20 06:25:07;;;;;;;150.82;53.80;;;;;;;-1.16;76.29;98119.52;1776915;80;26776;-87
2020/12/20 06:27:36;;;;;;;94.92;37.08;;;;;;;-1.20;76.23;98122.88;1776814;80;25892;-87
2020/12/20 06:30:07;;;;;;;74.32;30.52;;;;;;;-1.21;76.30;98128.33;1776832;80;25798;-87
2020/12/20 06:32:54;;;;;;;56.37;25.72;;;;;;;-1.24;76.34;98128.55;1776893;80;25880;-87
2020/12/20 06:35:28;;;;;;;51.77;23.10;;;;;;;-1.29;76.38;98123.61;1737451;81;25804;-87
2020/12/20 06:37:56;;;;;;;48.02;21.82;;;;;;;-1.31;76.44;98132.16;1725074;82;28519;-87
2020/12/20 06:40:35;;;;;;;54.65;23.42;;;;;;;-1.39;76.45;98137.21;1725147;82;25765;-86
2020/12/20 06:43:03;;;;;;;52.48;23.12;;;;;;;-1.38;76.51;98137.58;1725155;82;25819;-87
2020/12/20 06:45:30;;;;;;;64.50;27.02;;;;;;;-1.38;76.48;98138.06;1732555;82;27678;-87
2020/12/20 06:50:47;;;;;;;59.53;25.88;;;;;;;-1.36;76.37;98138.30;1873027;76;34826;-87
2020/12/20 06:53:17;;;;;;;55.52;24.23;;;;;;;-1.40;76.37;98138.65;1848678;77;25688;-88
2020/12/20 06:55:46;;;;;;;63.20;27.60;;;;;;;-1.41;76.32;98144.42;1844836;77;28772;-85
2020/12/20 06:58:19;;;;;;;52.40;24.47;;;;;;;-1.39;76.31;98140.34;1831503;76;26106;-85
2020/12/20 07:00:54;;;;;;;;;;;;;;;-1.40;76.24;98140.82;1825792;77;26362;-85
2020/12/20 07:03:31;;;;;;;63.80;25.02;;;;;;;-1.38;76.29;98142.88;1844624;77;25877;-85
2020/12/20 07:06:17;;;;;;;66.90;26.25;;;;;;;-1.41;76.27;98136.48;1829394;77;25773;-86
2020/12/20 07:09:07;;;;;;;66.30;27.77;;;;;;;-1.47;76.21;98143.59;1843006;77;27495;-86
2020/12/20 07:11:47;;;;;;;79.50;32.33;;;;;;;-1.55;76.19;98149.94;1838997;77;25973;-86
2020/12/20 07:14:22;;;;;;;87.33;34.95;;;;;;;-1.62;76.28;98157.52;1823697;77;26387;-85
2020/12/20 07:16:51;;;;;;;90.83;34.70;;;;;;;-1.65;76.38;98159.55;1834064;77;25857;-86
2020/12/20 07:19:23;;;;;;;93.27;35.15;;;;;;;-1.68;76.45;98155.80;1825540;77;26207;-85
2020/12/20 07:21:58;;;;;;;88.27;35.23;;;;;;;-1.65;76.57;98155.58;1833352;77;28445;-86
2020/12/20 07:24:34;;;;;;;108.95;45.45;;;;;;;-1.64;76.62;98157.27;1851851;77;26661;-86
2020/12/20 07:27:06;;;;;;;120.90;48.15;;;;;;;-1.60;76.62;98161.38;1836564;77;25796;-85
2020/12/20 07:29:37;;;;;;;102.00;42.60;;;;;;;-1.56;76.58;98160.16;1842381;77;25785;-86
2020/12/20 07:32:05;;;;;;;66.60;26.68;;;;;;;-1.53;76.53;98163.91;1808930;77;25751;-87
2020/12/20 07:34:34;;;;;;;66.28;27.77;;;;;;;-1.52;76.46;98161.63;1813847;77;26634;-86
2020/12/20 07:37:02;;;;;;;72.20;30.55;;;;;;;-1.51;76.52;98164.16;1831792;77;25679;-85
2020/12/20 07:39:29;;;;;;;64.12;28.90;;;;;;;-1.54;76.52;98159.09;1829205;77;25576;-88
2020/12/20 07:42:00;;;;;;;76.45;29.87;;;;;;;-1.51;76.52;98158.02;1829363;77;26351;-87
2020/12/20 07:44:28;;;;;;;64.07;28.52;;;;;;;-1.46;76.59;98157.20;1852662;77;25740;-85
2020/12/20 07:46:55;;;;;;;57.38;28.45;;;;;;;-1.40;76.63;98156.70;1852573;77;27491;-88
2020/12/20 07:49:22;;;;;;;59.40;27.87;;;;;;;-1.35;76.59;98162.50;1849457;77;25633;-87
2020/12/20 07:51:50;;;;;;;66.17;30.10;;;;;;;-1.30;76.61;98159.00;1837674;77;25878;-87
2020/12/20 07:54:17;;;;;;;80.70;38.05;;;;;;;-1.23;76.62;98162.88;1826366;77;25809;-87
2020/12/20 07:56:47;;;;;;;86.30;38.50;;;;;;;-1.14;76.59;98159.50;1840093;77;25732;-89
2020/12/20 07:59:20;;;;;;;73.47;33.92;;;;;;;-1.10;76.50;98154.33;1810115;77;27516;-88
2020/12/20 08:01:48;;;;;;;61.92;30.02;;;;;;;-1.11;76.42;98155.30;1827793;77;25255;-89
2020/12/20 08:04:18;;;;;;;64.67;30.35;;;;;;;-1.05;76.52;98159.73;1829883;77;25736;-87
2020/12/20 08:06:51;;;;;;;58.60;29.80;;;;;;;-1.04;76.47;98154.31;1833066;77;26142;-88
2020/12/20 08:09:25;;;;;;;63.55;29.32;;;;;;;-0.97;76.47;98152.05;1821949;77;25777;-86
2020/12/20 08:11:54;;;;;;;72.72;36.08;;;;;;;-0.88;76.48;98157.45;1818348;77;28442;-88
2020/12/20 08:14:23;;;;;;;86.82;40.70;;;;;;;-0.80;76.45;98158.16;1821000;77;25811;-88
2020/12/20 08:16:54;;;;;;;80.77;38.65;;;;;;;-0.78;76.35;98156.23;1827052;77;25799;-86
2020/12/20 08:19:31;;;;;;;84.62;42.58;;;;;;;-0.76;76.35;98156.47;1832885;77;25851;-87
2020/12/20 08:22:14;;;;;;;87.92;43.68;;;;;;;-0.70;76.36;98156.45;1825922;77;25744;-87
2020/12/20 08:24:47;;;;;;;93.92;46.35;;;;;;;-0.62;76.40;98155.38;1835965;77;27483;-88
2020/12/20 08:27:25;;;;;;;101.87;47.27;;;;;;;-0.54;76.40;98164.87;1828017;77;25672;-87
2020/12/20 08:29:55;;;;;;;98.58;43.85;;;;;;;-0.44;76.46;98158.33;1834910;77;25839;-87
2020/12/20 08:32:28;;;;;;;89.75;42.43;;;;;;;-0.29;76.47;98161.06;1828621;77;26146;-87
2020/12/20 08:34:58;;;;;;;;;;;;;;;-0.16;76.41;98156.92;1820061;77;26185;-86
2020/12/20 08:37:26;;;;;;;81.95;38.78;;;;;;;-0.01;76.48;98159.17;1839850;77;27431;-86
2020/12/20 08:39:53;;;;;;;85.00;39.73;;;;;;;0.17;76.43;98155.45;1819374;77;26103;-86
2020/12/20 08:42:21;;;;;;;81.22;39.55;;;;;;;0.33;76.30;98157.19;1827064;77;25764;-85
2020/12/20 08:44:49;;;;;;;64.62;34.38;;;;;;;0.54;76.12;98166.95;1831594;77;25719;-86
2020/12/20 08:47:19;;;;;;;65.45;33.85;;;;;;;0.78;76.03;98162.69;1810372;77;25771;-85
2020/12/20 08:49:58;;;;;;;62.65;32.03;;;;;;;1.00;75.82;98159.36;1809467;77;27489;-85
2020/12/20 08:52:31;;;;;;;57.58;31.02;;;;;;;1.25;75.66;98158.55;1832938;77;25658;-85
2020/12/20 08:55:01;;;;;;;62.48;32.40;;;;;;;1.46;75.31;98159.31;1809640;77;25825;-85
2020/12/20 08:57:31;;;;;;;59.88;31.93;;;;;;;1.67;75.20;98152.09;1827707;77;25776;-85
2020/12/20 09:00:14;;;;;;;59.38;30.25;;;;;;;1.87;75.01;98148.11;1799816;77;25705;-86
2020/12/20 09:02:42;;;;;;;58.73;31.27;;;;;;;2.02;74.63;98148.06;1793823;77;27542;-86
2020/12/20 09:05:17;;;;;;;93.80;47.93;;;;;;;2.19;74.62;98139.34;1837077;77;26522;-86
2020/12/20 09:07:47;;;;;;;94.75;51.23;;;;;;;2.36;74.56;98145.30;1807770;77;25920;-86
2020/12/20 09:10:19;;;;;;;148.00;70.40;;;;;;;2.51;74.43;98137.23;1841007;77;25497;-87
2020/12/20 09:13:04;;;;;;;130.25;62.15;;;;;;;2.69;74.37;98132.47;1799575;77;26122;-86
2020/12/20 09:15:35;;;;;;;113.22;56.13;;;;;;;2.81;74.17;98133.48;1822367;77;27499;-85
2020/12/20 09:18:19;;;;;;;83.40;42.00;;;;;;;2.94;74.06;98130.99;1819367;77;32146;-86
2020/12/20 09:20:47;;;;;;;69.62;34.45;;;;;;;3.07;74.01;98132.34;1842473;77;25829;-88
2020/12/20 09:23:23;;;;;;;71.17;36.35;;;;;;;3.31;73.93;98129.64;1818261;77;25860;-85
2020/12/20 09:26:02;;;;;;;74.40;37.15;;;;;;;3.54;73.85;98125.58;1842797;77;25856;-86
2020/12/20 09:28:33;;;;;;;56.42;29.80;;;;;;;3.80;73.74;98122.53;1817013;77;27481;-84
2020/12/20 09:31:05;;;;;;;51.73;26.97;;;;;;;4.01;73.42;98117.38;1809506;77;25759;-85
2020/12/20 09:33:36;;;;;;;52.58;28.20;;;;;;;4.23;73.19;98112.89;1809099;77;25786;-85
2020/12/20 09:36:24;;;;;;;54.93;27.40;;;;;;;4.43;72.98;98114.91;1840308;77;25744;-85
2020/12/20 09:38:55;;;;;;;52.70;27.05;;;;;;;4.61;72.68;98111.68;1815846;77;25797;-85
2020/12/20 09:41:29;;;;;;;47.08;26.70;;;;;;;4.82;72.45;98112.17;1809649;77;27672;-87
2020/12/20 09:43:59;;;;;;;44.75;23.60;;;;;;;5.06;72.25;98110.13;1832807;77;25423;-86
2020/12/20 09:46:34;;;;;;;42.55;23.73;;;;;;;5.31;71.88;98099.84;1818837;77;25776;-89
2020/12/20 09:49:01;;;;;;;37.75;24.10;;;;;;;5.51;71.53;98100.44;1840249;77;25749;-86
2020/12/20 09:51:30;;;;;;;40.38;23.18;;;;;;;5.62;71.18;98105.49;1837804;77;25706;-85
2020/12/20 09:53:58;;;;;;;35.95;21.25;;;;;;;5.79;70.97;98105.05;1791631;77;27336;-86
2020/12/20 09:56:25;;;;;;;38.33;23.38;;;;;;;5.99;70.67;98097.56;1834112;77;25779;-86
2020/12/20 09:58:52;;;;;;;38.78;22.00;;;;;;;6.18;70.46;98099.07;1842727;77;25345;-87
2020/12/20 10:01:23;;;;;;;33.55;20.23;;;;;;;6.28;70.03;98094.41;1838457;77;26359;-89
2020/12/20 10:03:50;;;;;;;37.03;21.95;;;;;;;6.42;69.89;98092.37;1831080;77;25811;-85
2020/12/20 10:06:18;;;;;;;39.27;23.27;;;;;;;6.56;69.61;98093.03;1839556;77;27688;-88
2020/12/20 10:08:46;;;;;;;32.30;20.15;;;;;;;6.71;69.49;98092.69;1817987;77;25687;-86
2020/12/20 10:11:19;;;;;;;39.60;23.75;;;;;;;6.88;69.06;98088.94;1801546;77;25856;-84
2020/12/20 10:13:49;;;;;;;38.92;21.40;;;;;;;7.06;69.03;98085.22;1802721;77;25819;-83
2020/12/20 10:16:20;;;;;;;36.77;22.20;;;;;;;7.24;68.74;98078.59;1831813;77;25816;-85
2020/12/20 10:18:47;;;;;;;36.70;22.05;;;;;;;7.39;68.40;98082.73;1813253;77;27535;-85
2020/12/20 10:21:18;;;;;;;36.03;21.62;;;;;;;7.49;68.03;98076.63;1795061;77;25284;-84
2020/12/20 10:23:45;;;;;;;37.85;21.30;;;;;;;7.64;67.83;98075.89;1829447;77;25697;-89
2020/12/20 10:26:13;;;;;;;33.23;21.70;;;;;;;7.81;67.46;98078.32;1836906;77;25702;-86
2020/12/20 10:28:41;;;;;;;36.85;22.40;;;;;;;8.00;67.30;98062.22;1803720;77;25722;-84
2020/12/20 10:31:08;;;;;;;36.10;22.87;;;;;;;8.23;66.99;98067.08;1813192;77;27482;-86
2020/12/20 10:33:37;;;;;;;37.40;22.58;;;;;;;8.42;66.62;98058.23;1832939;77;25712;-88
2020/12/20 10:36:04;;;;;;;40.48;23.87;;;;;;;8.61;66.37;98053.16;1833052;77;26454;-85
2020/12/20 10:38:32;;;;;;;34.40;22.32;;;;;;;8.80;65.75;98049.63;1809653;77;25628;-84
2020/12/20 10:40:59;;;;;;;38.50;22.50;;;;;;;8.86;65.57;98048.36;1809876;77;26429;-84
2020/12/20 10:43:27;;;;;;;37.90;23.12;;;;;;;8.93;64.89;98050.66;1794284;77;27482;-85
2020/12/20 10:45:54;;;;;;;40.43;22.67;;;;;;;9.05;65.07;98044.80;1828763;77;25779;-85
2020/12/20 10:48:22;;;;;;;35.78;22.22;;;;;;;9.20;64.76;98045.09;1841522;77;25748;-84
2020/12/20 10:50:49;;;;;;;33.67;22.15;;;;;;;9.37;64.41;98039.00;1831833;77;26136;-85
2020/12/20 10:53:17;;;;;;;32.40;19.73;;;;;;;9.47;64.21;98041.40;1818260;77;25711;-84
2020/12/20 10:55:44;;;;;;;28.35;19.73;;;;;;;9.62;64.00;98038.16;1830811;77;27687;-92
2020/12/20 10:58:12;;;;;;;33.95;20.23;;;;;;;9.77;63.62;98032.73;1835760;77;25798;-91
2020/12/20 11:00:39;;;;;;;31.37;19.65;;;;;;;9.92;63.34;98032.15;1818226;77;25871;-85
2020/12/20 11:03:07;;;;;;;28.17;17.48;;;;;;;10.07;63.12;98028.89;1841580;77;25876;-84
2020/12/20 11:05:34;;;;;;;29.72;19.20;;;;;;;10.20;62.72;98035.78;1818127;77;25726;-91
2020/12/20 11:08:02;;;;;;;28.60;18.48;;;;;;;10.29;62.49;98027.03;1818115;77;28469;-85
2020/12/20 11:10:29;;;;;;;27.60;18.52;;;;;;;10.49;62.19;98032.62;1831945;77;25713;-89
2020/12/20 11:12:57;;;;;;;28.45;18.60;;;;;;;10.59;61.74;98037.16;1837275;77;25787;-84
2020/12/20 11:15:24;;;;;;;28.92;18.98;;;;;;;10.73;61.78;98036.23;1851044;77;26383;-87
2020/12/20 11:17:52;;;;;;;28.73;19.27;;;;;;;10.91;61.45;98030.31;1850462;77;25850;-85
2020/12/20 11:20:19;;;;;;;29.25;18.35;;;;;;;11.04;61.04;98029.88;1842789;77;27486;-85
2020/12/20 11:22:47;;;;;;;25.85;17.23;;;;;;;11.13;60.67;98025.13;1838883;77;25745;-85
2020/12/20 11:25:15;;;;;;;28.55;18.12;;;;;;;11.16;60.09;98022.88;1842405;77;26395;-92
2020/12/20 11:27:42;;;;;;;26.62;18.00;;;;;;;11.08;59.98;98027.10;1842348;77;25840;-86
2020/12/20 11:30:09;;;;;;;27.07;17.95;;;;;;;11.00;59.51;98022.36;1845344;77;25750;-90